createdAt,value
2023-01-12T00:29:26.402Z,12.70
2023-01-12T00:32:01.045Z,11.48
2023-01-12T00:34:33.500Z,11.33
2023-01-12T00:37:05.969Z,10.75
2023-01-12T00:39:40.777Z,10.32
2023-01-12T00:42:31.589Z,11.30
2023-01-12T00:45:22.768Z,11.20
2023-01-12T00:47:55.320Z,10.65
2023-01-12T00:50:28.153Z,11.35
2023-01-12T00:53:00.606Z,12.23
2023-01-12T00:55:32.994Z,11.83
2023-01-12T00:58:05.543Z,11.73
2023-01-12T01:00:37.826Z,11.20
2023-01-12T01:03:10.293Z,11.88
2023-01-12T01:05:42.606Z,11.75
2023-01-12T01:08:15.085Z,10.70
2023-01-12T01:10:47.959Z,11.00
2023-01-12T01:13:20.605Z,11.68
2023-01-12T01:15:54.541Z,11.12
2023-01-12T01:18:27.985Z,11.88
2023-01-12T01:23:35.781Z,12.20
2023-01-12T01:26:10.650Z,13.15
2023-01-12T01:28:44.528Z,12.70
2023-01-12T01:31:23.090Z,11.93
2023-01-12T01:33:55.574Z,13.68
2023-01-12T01:36:28.701Z,12.60
2023-01-12T01:39:01.463Z,12.33
2023-01-12T01:41:34.537Z,12.55
2023-01-12T01:44:33.899Z,12.95
2023-01-12T01:47:19.659Z,13.08
2023-01-12T01:49:53.974Z,12.18
2023-01-12T01:52:37.107Z,12.98
2023-01-12T01:55:35.387Z,12.33
2023-01-12T01:58:15.412Z,11.93
2023-01-12T02:00:47.817Z,12.68
2023-01-12T02:03:20.707Z,12.23
2023-01-12T02:05:54.405Z,13.38
2023-01-12T02:08:51.995Z,13.78
2023-01-12T02:11:42.286Z,11.45
2023-01-12T02:14:32.782Z,12.63
2023-01-12T02:17:10.179Z,13.58
2023-01-12T02:20:34.298Z,11.00
2023-01-12T02:23:27.869Z,12.33
2023-01-12T02:26:19.535Z,13.78
2023-01-12T02:29:16.621Z,12.55
2023-01-12T02:32:02.559Z,12.50
2023-01-12T02:35:10.674Z,13.05
2023-01-12T02:38:02.711Z,11.57
2023-01-12T02:41:12.461Z,13.20
2023-01-12T02:43:44.789Z,11.78
2023-01-12T02:46:24.713Z,10.98
2023-01-12T02:49:08.488Z,11.18
2023-01-12T02:52:09.462Z,10.68
2023-01-12T02:54:42.052Z,11.00
2023-01-12T02:57:14.517Z,11.15
2023-01-12T02:59:48.398Z,11.12
2023-01-12T03:02:24.919Z,10.13
2023-01-12T03:04:57.354Z,10.03
2023-01-12T03:07:40.491Z,10.75
2023-01-12T03:10:57.095Z,10.05
2023-01-12T03:13:30.645Z,11.25
2023-01-12T03:16:03.554Z,11.10
2023-01-12T03:18:45.543Z,9.58
2023-01-12T03:21:28.327Z,9.95
2023-01-12T03:24:15.886Z,10.18
2023-01-12T03:26:52.429Z,9.70
2023-01-12T03:29:51.531Z,9.73
2023-01-12T03:32:24.649Z,10.28
2023-01-12T03:34:57.329Z,9.35
2023-01-12T03:37:42.510Z,9.00
2023-01-12T03:40:22.885Z,11.03
2023-01-12T03:43:29.112Z,9.20
2023-01-12T03:46:22.904Z,9.20
2023-01-12T03:49:03.178Z,9.45
2023-01-12T03:51:38.293Z,9.28
2023-01-12T03:54:12.114Z,10.20
2023-01-12T03:56:45.608Z,8.93
2023-01-12T03:59:18.008Z,9.08
2023-01-12T04:01:51.767Z,9.43
2023-01-12T04:04:24.647Z,9.35
2023-01-12T04:06:57.049Z,9.85
2023-01-12T04:09:29.644Z,9.48
2023-01-12T04:12:11.009Z,9.75
2023-01-12T04:14:47.800Z,9.65
2023-01-12T04:17:21.272Z,8.58
2023-01-12T04:19:54.165Z,10.23
2023-01-12T04:22:45.220Z,9.13
2023-01-12T04:25:21.204Z,9.40
2023-01-12T04:28:02.393Z,9.25
2023-01-12T04:30:35.563Z,8.45
2023-01-12T04:33:09.506Z,8.75
2023-01-12T04:35:41.927Z,8.48
2023-01-12T04:38:16.280Z,8.58
2023-01-12T04:40:52.406Z,15.60
2023-01-12T04:43:25.453Z,15.80
2023-01-12T04:45:57.843Z,13.03
2023-01-12T04:48:30.271Z,13.03
2023-01-12T04:51:03.187Z,13.50
2023-01-12T04:53:35.649Z,12.93
2023-01-12T04:56:30.011Z,14.40
2023-01-12T04:59:02.465Z,13.03
2023-01-12T05:01:36.954Z,13.45
2023-01-12T05:04:09.929Z,13.62
2023-01-12T05:06:42.392Z,14.00
2023-01-12T05:09:32.913Z,14.80
2023-01-12T05:12:05.856Z,16.37
2023-01-12T05:14:38.405Z,14.68
2023-01-12T05:17:11.340Z,15.72
2023-01-12T05:19:43.899Z,16.20
2023-01-12T05:22:16.311Z,14.98
2023-01-12T05:24:48.699Z,17.70
2023-01-12T05:27:21.541Z,15.45
2023-01-12T05:29:55.918Z,17.33
2023-01-12T05:32:29.972Z,15.72
2023-01-12T05:35:02.464Z,16.97
2023-01-12T05:37:35.092Z,16.95
2023-01-12T05:40:08.127Z,18.30
2023-01-12T05:42:59.415Z,18.12
2023-01-12T05:45:31.739Z,17.77
2023-01-12T05:48:04.694Z,16.30
2023-01-12T05:50:38.153Z,16.77
2023-01-12T05:53:14.277Z,15.88
2023-01-12T05:55:46.773Z,15.08
2023-01-12T05:58:19.192Z,13.85
2023-01-12T06:00:51.560Z,14.87
2023-01-12T06:03:24.223Z,14.38
2023-01-12T06:05:58.598Z,13.50
2023-01-12T06:08:31.515Z,13.70
2023-01-12T06:11:05.699Z,14.80
2023-01-12T06:13:56.873Z,14.38
2023-01-12T06:16:29.751Z,14.78
2023-01-12T06:19:02.703Z,16.67
2023-01-12T06:21:35.716Z,16.27
2023-01-12T06:24:08.373Z,17.02
2023-01-12T06:26:42.371Z,18.52
2023-01-12T06:29:14.701Z,17.45
2023-01-12T06:31:47.243Z,16.85
2023-01-12T06:34:20.680Z,16.30
2023-01-12T06:36:53.127Z,15.32
2023-01-12T06:39:25.561Z,16.30
2023-01-12T06:42:15.857Z,16.97
2023-01-12T06:44:49.033Z,16.50
2023-01-12T06:47:22.278Z,15.08
2023-01-12T06:49:54.776Z,16.57
2023-01-12T06:52:29.712Z,16.42
2023-01-12T06:55:02.183Z,14.20
2023-01-12T06:57:34.816Z,16.35
2023-01-12T07:00:12.055Z,16.87
2023-01-12T07:02:44.560Z,15.98
2023-01-12T07:05:17.080Z,16.42
2023-01-12T07:07:49.602Z,16.82
2023-01-12T10:46:22.070Z,16.25
2023-01-12T10:48:56.570Z,16.37
2023-01-12T10:54:20.251Z,14.55
2023-01-12T10:57:22.955Z,14.60
2023-01-12T11:00:02.089Z,14.58
2023-01-12T11:02:44.318Z,15.18
2023-01-12T11:05:38.824Z,14.78
2023-01-12T11:08:26.816Z,16.25
2023-01-12T11:10:59.843Z,16.60
2023-01-12T11:13:34.715Z,16.60
2023-01-12T11:16:20.929Z,14.75
2023-01-12T11:19:01.123Z,17.55
2023-01-12T11:21:38.355Z,16.17
2023-01-12T11:24:41.597Z,18.00
2023-01-12T11:27:30.683Z,17.37
2023-01-12T11:30:17.616Z,18.77
2023-01-12T11:33:04.531Z,18.80
2023-01-12T11:36:06.718Z,17.35
2023-01-12T11:38:43.922Z,16.55
2023-01-12T11:41:34.307Z,16.52
2023-01-12T11:44:26.710Z,20.20
2023-01-12T11:47:11.052Z,17.85
2023-01-12T11:50:08.815Z,17.30
2023-01-12T11:52:41.851Z,18.07
2023-01-12T11:55:17.147Z,17.10
2023-01-12T11:58:00.823Z,19.07
2023-01-12T12:01:03.919Z,21.65
2023-01-12T12:04:03.785Z,17.98
2023-01-12T12:07:00.805Z,20.97
2023-01-12T12:09:47.259Z,18.48
2023-01-12T12:12:39.666Z,18.05
2023-01-12T12:15:29.187Z,18.92
2023-01-12T12:18:39.665Z,19.82
2023-01-12T12:21:41.062Z,21.40
2023-01-12T12:25:02.323Z,20.30
2023-01-12T12:27:58.147Z,21.87
2023-01-12T12:30:44.541Z,21.52
2023-01-12T12:33:39.903Z,21.70
2023-01-12T12:36:33.706Z,19.90
2023-01-12T12:39:27.724Z,21.60
2023-01-12T12:42:25.551Z,19.95
2023-01-12T12:45:17.834Z,21.75
2023-01-12T12:48:16.462Z,19.95
2023-01-12T12:51:01.977Z,20.68
2023-01-12T12:53:58.081Z,20.20
2023-01-12T12:59:03.973Z,20.95
2023-01-12T13:01:39.815Z,21.45
2023-01-12T13:04:43.356Z,20.35
2023-01-12T13:07:20.101Z,21.80
2023-01-12T13:09:52.778Z,20.32
2023-01-12T13:12:37.166Z,22.27
2023-01-12T13:15:24.161Z,23.98
2023-01-12T13:17:56.941Z,23.90
2023-01-12T13:20:52.388Z,24.55
2023-01-12T13:23:44.302Z,26.50
2023-01-12T13:26:37.715Z,22.73
2023-01-12T13:29:33.301Z,21.57
2023-01-12T13:32:41.759Z,21.00
2023-01-12T13:35:40.778Z,21.80
2023-01-12T13:38:37.072Z,23.18
2023-01-12T13:41:22.152Z,23.75
2023-01-12T13:43:58.444Z,21.95
2023-01-12T13:46:47.027Z,20.85
2023-01-12T13:49:36.896Z,22.00
2023-01-12T13:52:25.432Z,20.85
2023-01-12T13:54:57.949Z,22.02
2023-01-12T13:57:32.720Z,20.27
2023-01-12T14:00:11.805Z,20.95
2023-01-12T14:02:47.252Z,21.50
2023-01-12T14:05:39.688Z,19.90
2023-01-12T14:08:36.824Z,19.40
2023-01-12T14:11:24.616Z,19.20
2023-01-12T14:14:09.284Z,21.10
2023-01-12T17:52:04.342Z,32.55
2023-01-12T17:54:38.353Z,30.77
2023-01-12T17:57:10.895Z,31.62
2023-01-12T17:59:43.433Z,28.55
2023-01-12T18:02:16.738Z,28.20
2023-01-12T18:04:49.390Z,30.95
2023-01-12T18:07:24.107Z,30.97
2023-01-12T18:09:56.714Z,30.70
2023-01-12T18:12:30.330Z,32.00
2023-01-12T18:15:03.671Z,30.23
2023-01-12T18:17:36.237Z,29.92
2023-01-12T18:20:09.124Z,29.67
2023-01-12T18:22:41.621Z,29.90
2023-01-12T18:25:14.994Z,30.70
2023-01-12T18:27:47.874Z,30.20
2023-01-12T18:30:20.716Z,30.27
2023-01-12T18:32:53.599Z,28.27
2023-01-12T18:35:26.429Z,28.98
2023-01-12T18:37:58.999Z,27.62
2023-01-12T18:40:31.504Z,30.72
2023-01-12T18:43:04.188Z,26.62
2023-01-12T18:45:36.899Z,27.27
2023-01-12T18:48:24.331Z,27.42
2023-01-12T18:51:14.620Z,25.68
2023-01-12T18:53:47.303Z,25.80
2023-01-12T18:56:20.440Z,26.33
2023-01-12T18:58:53.685Z,24.98
2023-01-12T19:01:26.458Z,26.35
2023-01-12T19:03:59.723Z,27.48
2023-01-12T19:06:43.100Z,25.48
2023-01-12T19:09:33.263Z,27.82
2023-01-12T19:12:06.794Z,25.23
2023-01-12T19:14:56.934Z,24.25
2023-01-12T19:17:30.347Z,25.62
2023-01-12T19:20:25.460Z,24.80
2023-01-12T19:23:15.667Z,25.12
2023-01-12T19:26:00.131Z,24.43
2023-01-12T19:28:34.859Z,25.32
2023-01-12T19:31:11.098Z,25.68
2023-01-12T19:33:44.030Z,25.25
2023-01-12T19:36:16.664Z,24.92
2023-01-12T19:38:54.115Z,23.87
2023-01-12T19:41:44.238Z,26.02
2023-01-12T19:44:16.535Z,22.70
2023-01-12T19:46:48.985Z,23.15
2023-01-12T19:49:21.340Z,23.87
2023-01-12T19:51:53.782Z,25.92
2023-01-12T19:54:26.304Z,25.00
2023-01-12T19:56:58.866Z,22.37
2023-01-12T19:59:31.239Z,22.70
2023-01-12T20:02:04.176Z,21.42
2023-01-12T20:04:37.129Z,21.70
2023-01-12T20:07:10.002Z,21.27
2023-01-12T20:09:42.651Z,21.97
2023-01-12T20:12:16.832Z,23.70
2023-01-12T20:14:49.161Z,23.35
2023-01-12T20:17:21.690Z,19.27
2023-01-12T20:19:54.070Z,21.97
2023-01-12T20:22:27.855Z,21.75
2023-01-12T20:25:01.744Z,21.25
2023-01-12T20:30:25.294Z,17.87
2023-01-12T20:32:52.924Z,15.70
2023-01-12T20:35:25.647Z,16.90
2023-01-12T20:37:58.106Z,17.15
2023-01-12T20:40:30.473Z,16.67
2023-01-12T20:43:02.968Z,15.38
2023-01-12T20:45:35.554Z,15.23
2023-01-12T20:48:11.318Z,16.15
2023-01-12T20:50:46.403Z,14.68
2023-01-12T20:53:19.374Z,15.55
2023-01-12T20:55:52.130Z,15.35
2023-01-12T20:58:25.242Z,14.25
2023-01-12T21:00:57.933Z,13.08
2023-01-12T21:03:30.723Z,13.60
2023-01-12T21:06:03.209Z,14.90
2023-01-12T21:08:36.533Z,13.60
2023-01-12T21:11:09.149Z,13.35
2023-01-12T21:13:42.083Z,13.58
2023-01-12T21:16:18.279Z,14.75
2023-01-12T21:18:52.169Z,14.13
2023-01-12T21:21:24.707Z,15.83
2023-01-12T21:23:57.362Z,14.70
2023-01-12T21:26:29.846Z,14.15
2023-01-12T21:29:02.616Z,14.07
2023-01-12T21:31:35.335Z,15.30
2023-01-12T21:34:07.731Z,13.40
2023-01-12T21:36:41.066Z,13.05
2023-01-12T21:39:13.690Z,13.95
2023-01-12T21:42:04.102Z,14.10
2023-01-12T21:44:36.799Z,14.90
2023-01-12T21:47:09.291Z,13.88
2023-01-12T21:49:42.179Z,14.60
2023-01-12T21:52:14.607Z,13.98
2023-01-12T21:54:47.077Z,13.90
2023-01-12T21:57:19.482Z,14.13
2023-01-12T21:59:52.027Z,14.23
2023-01-12T22:02:25.697Z,14.53
2023-01-12T22:04:58.120Z,14.80
2023-01-12T22:07:30.623Z,13.98
2023-01-12T22:10:22.096Z,14.18
2023-01-12T22:12:57.114Z,13.03
2023-01-12T22:15:30.724Z,14.28
2023-01-12T22:18:03.252Z,12.93
2023-01-12T22:20:35.820Z,13.72
2023-01-12T22:23:09.105Z,13.75
2023-01-12T22:25:41.674Z,14.90
2023-01-12T22:28:14.685Z,14.28
2023-01-12T22:30:47.253Z,12.98
2023-01-12T22:33:19.863Z,13.75
2023-01-12T22:35:52.515Z,14.00
2023-01-12T22:38:24.919Z,14.40
2023-01-12T22:40:58.058Z,13.70
2023-01-12T22:43:30.482Z,14.40
2023-01-12T22:46:03.014Z,14.55
2023-01-12T22:48:36.360Z,14.93
2023-01-12T22:51:09.081Z,14.38
2023-01-12T22:53:42.081Z,13.50
2023-01-12T22:56:15.612Z,16.05
2023-01-12T22:58:51.264Z,16.45
2023-01-12T23:01:26.758Z,14.68
2023-01-12T23:03:59.355Z,14.30
2023-01-12T23:06:31.860Z,13.85
2023-01-12T23:09:05.106Z,15.70
2023-01-12T23:11:37.706Z,13.38
2023-01-12T23:14:10.704Z,14.07
2023-01-12T23:16:43.245Z,14.63
2023-01-12T23:19:15.956Z,15.60
2023-01-12T23:21:48.947Z,15.18
2023-01-12T23:26:54.314Z,14.65
2023-01-12T23:29:26.950Z,13.60
2023-01-12T23:31:59.479Z,13.40
2023-01-12T23:34:31.955Z,13.38
2023-01-12T23:37:04.852Z,13.22
2023-01-12T23:39:38.863Z,13.83
2023-01-12T23:42:11.515Z,14.03
2023-01-12T23:44:45.465Z,13.40
2023-01-12T23:47:19.471Z,13.15
2023-01-12T23:49:52.223Z,13.70
2023-01-12T23:52:25.128Z,14.40
2023-01-12T23:54:58.601Z,15.48
2023-01-12T23:57:31.497Z,15.30
